sensor_id;sensor_type;location;lat;lon;timestamp;pressure;altitude;pressure_sealevel;temperature;humidity
69667;BME280;66534;52.370;4.832;2024-03-29T00:00:20;98841.88;;;14.17;100.00
69667;BME280;66534;52.370;4.832;2024-03-29T00:00:50;98844.91;;;13.93;100.00
69667;BME280;66534;52.370;4.832;2024-03-29T00:01:20;98838.94;;;14.11;100.00
69667;BME280;66534;52.370;4.832;2024-03-29T00:01:51;98842.28;;;14.13;100.00
69667;BME280;66534;52.370;4.832;2024-03-29T00:02:21;98845.31;;;14.08;100.00
69667;BME280;66534;52.370;4.832;2024-03-29T00:02:52;98834.91;;;14.26;100.00
69667;BME280;66534;52.370;4.832;2024-03-29T00:03:22;98830.88;;;14.32;100.00
69667;BME280;66534;52.370;4.832;2024-03-29T00:03:54;98831.44;;;14.35;100.00
69667;BME280;66534;52.370;4.832;2024-03-29T00:04:25;98845.59;;;14.25;100.00
69667;BME280;66534;52.370;4.832;2024-03-29T00:04:55;98835.31;;;14.31;100.00
69667;BME280;66534;52.370;4.832;2024-03-29T00:05:25;98837.81;;;14.42;100.00
69667;BME280;66534;52.370;4.832;2024-03-29T00:05:56;98830.88;;;14.51;100.00
69667;BME280;66534;52.370;4.832;2024-03-29T00:06:26;98839.75;;;14.50;100.00
69667;BME280;66534;52.370;4.832;2024-03-29T00:06:57;98836.00;;;14.53;100.00
69667;BME280;66534;52.370;4.832;2024-03-29T00:07:27;98834.22;;;14.24;100.00
69667;BME280;66534;52.370;4.832;2024-03-29T00:07:57;98840.75;;;14.30;100.00
69667;BME280;66534;52.370;4.832;2024-03-29T00:08:28;98828.22;;;14.41;100.00
69667;BME280;66534;52.370;4.832;2024-03-29T00:08:58;98830.28;;;14.38;100.00
69667;BME280;66534;52.370;4.832;2024-03-29T00:09:29;98842.13;;;14.34;100.00
69667;BME280;66534;52.370;4.832;2024-03-29T00:10:00;98836.41;;;14.29;100.00
69667;BME280;66534;52.370;4.832;2024-03-29T00:10:31;98838.38;;;14.27;100.00
69667;BME280;66534;52.370;4.832;2024-03-29T00:11:01;98841.56;;;14.30;100.00
69667;BME280;66534;52.370;4.832;2024-03-29T00:11:32;98843.38;;;14.30;100.00
69667;BME280;66534;52.370;4.832;2024-03-29T00:12:03;98841.00;;;14.27;100.00
69667;BME280;66534;52.370;4.832;2024-03-29T00:12:34;98847.38;;;14.24;100.00
69667;BME280;66534;52.370;4.832;2024-03-29T00:13:04;98842.41;;;14.31;100.00
69667;BME280;66534;52.370;4.832;2024-03-29T00:13:35;98838.38;;;14.17;100.00
69667;BME280;66534;52.370;4.832;2024-03-29T00:14:05;98838.81;;;14.03;100.00
69667;BME280;66534;52.370;4.832;2024-03-29T00:14:35;98839.63;;;14.23;100.00
69667;BME280;66534;52.370;4.832;2024-03-29T00:15:06;98840.44;;;14.52;100.00
69667;BME280;66534;52.370;4.832;2024-03-29T00:15:37;98840.28;;;14.44;100.00
69667;BME280;66534;52.370;4.832;2024-03-29T00:16:08;98836.28;;;14.50;100.00
69667;BME280;66534;52.370;4.832;2024-03-29T00:16:38;98849.47;;;14.20;100.00
69667;BME280;66534;52.370;4.832;2024-03-29T00:17:09;98849.91;;;14.16;100.00
69667;BME280;66534;52.370;4.832;2024-03-29T00:17:39;98847.97;;;14.18;100.00
69667;BME280;66534;52.370;4.832;2024-03-29T00:18:09;98845.88;;;14.02;100.00
69667;BME280;66534;52.370;4.832;2024-03-29T00:18:40;98850.59;;;13.99;100.00
69667;BME280;66534;52.370;4.832;2024-03-29T00:19:10;98848.53;;;14.02;100.00
69667;BME280;66534;52.370;4.832;2024-03-29T00:19:41;98844.91;;;14.03;100.00
69667;BME280;66534;52.370;4.832;2024-03-29T00:20:11;98850.59;;;14.18;100.00
69667;BME280;66534;52.370;4.832;2024-03-29T00:20:42;98845.88;;;14.12;100.00
69667;BME280;66534;52.370;4.832;2024-03-29T00:21:12;98844.91;;;14.23;100.00
69667;BME280;66534;52.370;4.832;2024-03-29T00:21:47;98840.06;;;14.18;100.00
69667;BME280;66534;52.370;4.832;2024-03-29T00:22:17;98850.44;;;14.00;100.00
69667;BME280;66534;52.370;4.832;2024-03-29T00:22:48;98841.44;;;14.22;100.00
69667;BME280;66534;52.370;4.832;2024-03-29T00:23:18;98847.00;;;14.09;100.00
69667;BME280;66534;52.370;4.832;2024-03-29T00:23:48;98840.19;;;13.97;100.00
69667;BME280;66534;52.370;4.832;2024-03-29T00:24:21;98845.03;;;14.11;100.00
69667;BME280;66534;52.370;4.832;2024-03-29T00:24:51;98855.31;;;14.14;100.00
69667;BME280;66534;52.370;4.832;2024-03-29T00:25:22;98849.06;;;14.15;100.00
69667;BME280;66534;52.370;4.832;2024-03-29T00:25:52;98852.84;;;14.13;100.00
69667;BME280;66534;52.370;4.832;2024-03-29T00:26:23;98848.91;;;14.17;100.00
69667;BME280;66534;52.370;4.832;2024-03-29T00:26:53;98846.00;;;14.39;100.00
69667;BME280;66534;52.370;4.832;2024-03-29T00:27:23;98847.25;;;14.16;100.00
69667;BME280;66534;52.370;4.832;2024-03-29T00:27:56;98854.75;;;14.20;100.00
69667;BME280;66534;52.370;4.832;2024-03-29T00:28:27;98849.19;;;14.43;100.00
69667;BME280;66534;52.370;4.832;2024-03-29T00:28:57;98857.81;;;14.26;100.00
69667;BME280;66534;52.370;4.832;2024-03-29T00:29:27;98850.72;;;14.26;100.00
69667;BME280;66534;52.370;4.832;2024-03-29T00:29:58;98844.03;;;14.41;100.00
69667;BME280;66534;52.370;4.832;2024-03-29T00:30:29;98851.28;;;14.10;100.00
69667;BME280;66534;52.370;4.832;2024-03-29T00:30:59;98855.56;;;14.21;100.00
69667;BME280;66534;52.370;4.832;2024-03-29T00:31:29;98865.72;;;14.26;100.00
69667;BME280;66534;52.370;4.832;2024-03-29T00:32:00;98857.09;;;14.24;100.00
69667;BME280;66534;52.370;4.832;2024-03-29T00:32:30;98860.03;;;14.30;100.00
69667;BME280;66534;52.370;4.832;2024-03-29T00:33:02;98859.47;;;14.27;100.00
69667;BME280;66534;52.370;4.832;2024-03-29T00:33:32;98854.19;;;14.36;100.00
69667;BME280;66534;52.370;4.832;2024-03-29T00:34:03;98852.94;;;14.60;100.00
69667;BME280;66534;52.370;4.832;2024-03-29T00:34:33;98858.09;;;14.52;100.00
69667;BME280;66534;52.370;4.832;2024-03-29T00:35:04;98860.44;;;14.35;100.00
69667;BME280;66534;52.370;4.832;2024-03-29T00:35:34;98852.53;;;14.26;100.00
69667;BME280;66534;52.370;4.832;2024-03-29T00:36:05;98866.00;;;14.32;100.00
69667;BME280;66534;52.370;4.832;2024-03-29T00:36:35;98860.47;;;14.26;100.00
69667;BME280;66534;52.370;4.832;2024-03-29T00:37:05;98858.22;;;14.31;100.00
69667;BME280;66534;52.370;4.832;2024-03-29T00:37:36;98855.28;;;14.43;100.00
69667;BME280;66534;52.370;4.832;2024-03-29T00:38:06;98858.19;;;14.40;100.00
69667;BME280;66534;52.370;4.832;2024-03-29T00:38:37;98866.13;;;14.31;100.00
69667;BME280;66534;52.370;4.832;2024-03-29T00:39:09;98857.50;;;14.29;100.00
69667;BME280;66534;52.370;4.832;2024-03-29T00:39:41;98860.03;;;14.30;100.00
69667;BME280;66534;52.370;4.832;2024-03-29T00:40:30;98857.81;;;14.26;100.00
69667;BME280;66534;52.370;4.832;2024-03-29T00:41:01;98862.94;;;14.27;100.00
69667;BME280;66534;52.370;4.832;2024-03-29T00:41:31;98860.72;;;14.23;100.00
69667;BME280;66534;52.370;4.832;2024-03-29T00:42:01;98863.63;;;14.29;100.00
69667;BME280;66534;52.370;4.832;2024-03-29T00:42:32;98859.34;;;14.18;100.00
69667;BME280;66534;52.370;4.832;2024-03-29T00:43:02;98863.66;;;14.10;100.00
69667;BME280;66534;52.370;4.832;2024-03-29T00:43:33;98857.66;;;14.08;100.00
69667;BME280;66534;52.370;4.832;2024-03-29T00:44:03;98856.69;;;14.28;100.00
69667;BME280;66534;52.370;4.832;2024-03-29T00:44:36;98861.41;;;14.44;100.00
69667;BME280;66534;52.370;4.832;2024-03-29T00:45:08;98862.66;;;14.30;100.00
69667;BME280;66534;52.370;4.832;2024-03-29T00:45:39;98860.44;;;14.16;100.00
69667;BME280;66534;52.370;4.832;2024-03-29T00:46:09;98861.53;;;14.04;100.00
69667;BME280;66534;52.370;4.832;2024-03-29T00:46:40;98861.00;;;14.10;100.00
69667;BME280;66534;52.370;4.832;2024-03-29T00:47:10;98867.22;;;14.38;100.00
69667;BME280;66534;52.370;4.832;2024-03-29T00:47:41;98861.69;;;14.31;100.00
69667;BME280;66534;52.370;4.832;2024-03-29T00:48:11;98862.25;;;14.15;100.00
69667;BME280;66534;52.370;4.832;2024-03-29T00:48:45;98865.72;;;14.06;100.00
69667;BME280;66534;52.370;4.832;2024-03-29T00:49:17;98860.31;;;14.17;100.00
69667;BME280;66534;52.370;4.832;2024-03-29T00:49:47;98863.91;;;13.87;100.00
69667;BME280;66534;52.370;4.832;2024-03-29T00:50:18;98861.69;;;14.02;100.00
69667;BME280;66534;52.370;4.832;2024-03-29T00:50:48;98871.41;;;13.92;100.00
69667;BME280;66534;52.370;4.832;2024-03-29T00:51:19;98865.03;;;13.94;100.00
69667;BME280;66534;52.370;4.832;2024-03-29T00:51:50;98868.47;;;13.85;100.00
69667;BME280;66534;52.370;4.832;2024-03-29T00:52:20;98865.56;;;14.08;100.00
69667;BME280;66534;52.370;4.832;2024-03-29T00:52:51;98875.97;;;14.00;100.00
69667;BME280;66534;52.370;4.832;2024-03-29T00:53:21;98865.44;;;13.90;100.00
69667;BME280;66534;52.370;4.832;2024-03-29T00:53:52;98874.72;;;13.94;100.00
69667;BME280;66534;52.370;4.832;2024-03-29T00:54:43;98864.59;;;13.99;100.00
69667;BME280;66534;52.370;4.832;2024-03-29T00:55:13;98866.53;;;14.16;100.00
69667;BME280;66534;52.370;4.832;2024-03-29T00:55:44;98872.25;;;14.02;100.00
69667;BME280;66534;52.370;4.832;2024-03-29T00:56:15;98877.78;;;13.89;100.00
69667;BME280;66534;52.370;4.832;2024-03-29T00:56:45;98876.81;;;13.81;100.00
69667;BME280;66534;52.370;4.832;2024-03-29T00:57:16;98874.31;;;13.89;100.00
69667;BME280;66534;52.370;4.832;2024-03-29T00:57:46;98877.22;;;13.86;100.00
69667;BME280;66534;52.370;4.832;2024-03-29T00:58:17;98881.53;;;13.97;100.00
69667;BME280;66534;52.370;4.832;2024-03-29T00:58:47;98876.41;;;14.05;100.00
69667;BME280;66534;52.370;4.832;2024-03-29T00:59:18;98871.94;;;14.25;100.00
69667;BME280;66534;52.370;4.832;2024-03-29T00:59:50;98869.03;;;13.99;100.00
69667;BME280;66534;52.370;4.832;2024-03-29T01:00:20;98887.34;;;13.81;100.00
69667;BME280;66534;52.370;4.832;2024-03-29T01:00:50;98877.09;;;13.97;100.00
69667;BME280;66534;52.370;4.832;2024-03-29T01:01:21;98878.91;;;13.97;100.00
69667;BME280;66534;52.370;4.832;2024-03-29T01:01:52;98879.72;;;14.07;100.00
69667;BME280;66534;52.370;4.832;2024-03-29T01:02:23;98878.88;;;13.67;100.00
69667;BME280;66534;52.370;4.832;2024-03-29T01:02:53;98878.03;;;13.77;100.00
69667;BME280;66534;52.370;4.832;2024-03-29T01:03:24;98878.75;;;13.88;100.00
69667;BME280;66534;52.370;4.832;2024-03-29T01:03:54;98874.31;;;14.08;100.00
69667;BME280;66534;52.370;4.832;2024-03-29T01:04:24;98880.84;;;13.85;100.00
69667;BME280;66534;52.370;4.832;2024-03-29T01:04:55;98873.72;;;13.66;100.00
69667;BME280;66534;52.370;4.832;2024-03-29T01:05:25;98878.47;;;13.82;100.00
69667;BME280;66534;52.370;4.832;2024-03-29T01:05:56;98875.41;;;13.86;100.00
69667;BME280;66534;52.370;4.832;2024-03-29T01:06:26;98872.91;;;13.75;100.00
69667;BME280;66534;52.370;4.832;2024-03-29T01:06:56;98872.63;;;13.68;100.00
69667;BME280;66534;52.370;4.832;2024-03-29T01:07:27;98883.69;;;13.62;100.00
69667;BME280;66534;52.370;4.832;2024-03-29T01:07:57;98874.44;;;13.68;100.00
69667;BME280;66534;52.370;4.832;2024-03-29T01:08:27;98875.81;;;13.72;100.00
69667;BME280;66534;52.370;4.832;2024-03-29T01:08:58;98875.94;;;13.61;100.00
69667;BME280;66534;52.370;4.832;2024-03-29T01:09:28;98872.88;;;13.56;100.00
69667;BME280;66534;52.370;4.832;2024-03-29T01:09:59;98872.47;;;13.70;100.00
69667;BME280;66534;52.370;4.832;2024-03-29T01:10:29;98875.41;;;13.77;100.00
69667;BME280;66534;52.370;4.832;2024-03-29T01:10:59;98870.28;;;13.85;100.00
69667;BME280;66534;52.370;4.832;2024-03-29T01:11:30;98872.22;;;13.73;100.00
69667;BME280;66534;52.370;4.832;2024-03-29T01:12:01;98876.09;;;13.79;100.00
69667;BME280;66534;52.370;4.832;2024-03-29T01:12:31;98871.78;;;13.78;100.00
69667;BME280;66534;52.370;4.832;2024-03-29T01:13:01;98878.91;;;13.97;100.00
69667;BME280;66534;52.370;4.832;2024-03-29T01:13:32;98874.31;;;13.99;100.00
69667;BME280;66534;52.370;4.832;2024-03-29T01:14:03;98870.28;;;14.24;100.00
69667;BME280;66534;52.370;4.832;2024-03-29T01:14:34;98878.88;;;13.77;100.00
69667;BME280;66534;52.370;4.832;2024-03-29T01:15:04;98882.75;;;13.83;100.00
69667;BME280;66534;52.370;4.832;2024-03-29T01:15:36;98873.63;;;13.97;100.00
69667;BME280;66534;52.370;4.832;2024-03-29T01:16:07;98876.81;;;13.90;100.00
69667;BME280;66534;52.370;4.832;2024-03-29T01:16:37;98877.31;;;13.65;100.00
69667;BME280;66534;52.370;4.832;2024-03-29T01:17:07;98876.25;;;13.77;100.00
69667;BME280;66534;52.370;4.832;2024-03-29T01:17:38;98883.19;;;13.88;100.00
69667;BME280;66534;52.370;4.832;2024-03-29T01:18:08;98878.31;;;13.74;100.00
69667;BME280;66534;52.370;4.832;2024-03-29T01:18:40;98882.06;;;13.81;100.00
69667;BME280;66534;52.370;4.832;2024-03-29T01:19:13;98883.31;;;13.86;100.00
69667;BME280;66534;52.370;4.832;2024-03-29T01:19:44;98880.28;;;13.91;100.00
69667;BME280;66534;52.370;4.832;2024-03-29T01:20:14;98872.78;;;13.86;100.00
69667;BME280;66534;52.370;4.832;2024-03-29T01:20:44;98873.13;;;13.53;100.00
69667;BME280;66534;52.370;4.832;2024-03-29T01:21:15;98874.28;;;13.69;100.00
69667;BME280;66534;52.370;4.832;2024-03-29T01:21:45;98870.66;;;13.70;100.00
69667;BME280;66534;52.370;4.832;2024-03-29T01:22:16;98878.72;;;13.69;100.00
69667;BME280;66534;52.370;4.832;2024-03-29T01:22:46;98870.03;;;13.88;100.00
69667;BME280;66534;52.370;4.832;2024-03-29T01:23:16;98866.97;;;13.92;100.00
69667;BME280;66534;52.370;4.832;2024-03-29T01:23:47;98870.72;;;13.90;100.00
69667;BME280;66534;52.370;4.832;2024-03-29T01:24:17;98865.28;;;13.91;100.00
69667;BME280;66534;52.370;4.832;2024-03-29T01:24:48;98873.03;;;13.74;100.00
69667;BME280;66534;52.370;4.832;2024-03-29T01:25:19;98864.97;;;13.65;100.00
69667;BME280;66534;52.370;4.832;2024-03-29T01:25:49;98872.78;;;13.67;100.00
69667;BME280;66534;52.370;4.832;2024-03-29T01:26:20;98871.78;;;13.78;100.00
69667;BME280;66534;52.370;4.832;2024-03-29T01:26:50;98881.09;;;13.91;100.00
69667;BME280;66534;52.370;4.832;2024-03-29T01:27:21;98858.09;;;14.03;100.00
69667;BME280;66534;52.370;4.832;2024-03-29T01:27:52;98870.97;;;13.87;100.00
69667;BME280;66534;52.370;4.832;2024-03-29T01:28:23;98870.25;;;13.56;100.00
69667;BME280;66534;52.370;4.832;2024-03-29T01:28:53;98872.03;;;13.55;100.00
69667;BME280;66534;52.370;4.832;2024-03-29T01:29:23;98869.13;;;13.58;100.00
69667;BME280;66534;52.370;4.832;2024-03-29T01:29:54;98874.94;;;13.62;100.00
69667;BME280;66534;52.370;4.832;2024-03-29T01:30:24;98876.91;;;13.69;100.00
69667;BME280;66534;52.370;4.832;2024-03-29T01:30:57;98869.41;;;13.65;100.00
69667;BME280;66534;52.370;4.832;2024-03-29T01:31:28;98868.06;;;13.80;100.00
69667;BME280;66534;52.370;4.832;2024-03-29T01:31:59;98870.16;;;13.86;100.00
69667;BME280;66534;52.370;4.832;2024-03-29T01:32:29;98866.00;;;13.93;100.00
69667;BME280;66534;52.370;4.832;2024-03-29T01:32:59;98876.69;;;14.02;100.00
69667;BME280;66534;52.370;4.832;2024-03-29T01:33:30;98876.28;;;13.97;100.00
69667;BME280;66534;52.370;4.832;2024-03-29T01:34:06;98874.03;;;13.82;100.00
69667;BME280;66534;52.370;4.832;2024-03-29T01:34:36;98870.44;;;13.93;100.00
69667;BME280;66534;52.370;4.832;2024-03-29T01:35:07;98868.91;;;14.10;100.00
69667;BME280;66534;52.370;4.832;2024-03-29T01:35:38;98871.38;;;13.82;100.00
69667;BME280;66534;52.370;4.832;2024-03-29T01:36:08;98874.28;;;13.69;100.00
69667;BME280;66534;52.370;4.832;2024-03-29T01:36:38;98875.78;;;13.62;100.00
69667;BME280;66534;52.370;4.832;2024-03-29T01:37:12;98872.91;;;13.75;100.00
69667;BME280;66534;52.370;4.832;2024-03-29T01:37:42;98871.78;;;13.68;100.00
69667;BME280;66534;52.370;4.832;2024-03-29T01:38:14;98868.75;;;13.73;100.00
69667;BME280;66534;52.370;4.832;2024-03-29T01:38:45;98864.72;;;13.68;100.00
69667;BME280;66534;52.370;4.832;2024-03-29T01:39:18;98869.69;;;13.62;100.00
69667;BME280;66534;52.370;4.832;2024-03-29T01:39:51;98874.69;;;13.75;100.00
69667;BME280;66534;52.370;4.832;2024-03-29T01:40:21;98861.41;;;13.76;100.00
69667;BME280;66534;52.370;4.832;2024-03-29T01:40:52;98874.16;;;13.81;100.00
69667;BME280;66534;52.370;4.832;2024-03-29T01:41:23;98868.59;;;13.74;100.00
69667;BME280;66534;52.370;4.832;2024-03-29T01:41:53;98868.34;;;13.87;100.00
69667;BME280;66534;52.370;4.832;2024-03-29T01:42:24;98873.22;;;14.01;100.00
69667;BME280;66534;52.370;4.832;2024-03-29T01:42:54;98874.31;;;13.89;100.00
69667;BME280;66534;52.370;4.832;2024-03-29T01:43:25;98872.09;;;13.94;100.00
69667;BME280;66534;52.370;4.832;2024-03-29T01:43:58;98875.97;;;13.80;100.00
69667;BME280;66534;52.370;4.832;2024-03-29T01:44:28;98864.59;;;13.89;100.00
69667;BME280;66534;52.370;4.832;2024-03-29T01:44:59;98869.56;;;13.83;100.00
69667;BME280;66534;52.370;4.832;2024-03-29T01:45:29;98872.50;;;13.89;100.00
69667;BME280;66534;52.370;4.832;2024-03-29T01:46:01;98866.97;;;13.92;100.00
69667;BME280;66534;52.370;4.832;2024-03-29T01:46:31;98857.78;;;13.87;100.00
69667;BME280;66534;52.370;4.832;2024-03-29T01:47:06;98860.00;;;13.82;100.00
69667;BME280;66534;52.370;4.832;2024-03-29T01:47:37;98852.25;;;13.90;100.00
69667;BME280;66534;52.370;4.832;2024-03-29T01:48:08;98860.00;;;13.82;100.00
69667;BME280;66534;52.370;4.832;2024-03-29T01:48:40;98851.84;;;13.85;100.00
69667;BME280;66534;52.370;4.832;2024-03-29T01:49:11;98859.28;;;13.70;100.00
69667;BME280;66534;52.370;4.832;2024-03-29T01:49:41;98849.75;;;13.69;100.00
69667;BME280;66534;52.370;4.832;2024-03-29T01:50:12;98851.53;;;13.68;100.00
69667;BME280;66534;52.370;4.832;2024-03-29T01:50:42;98857.50;;;13.70;100.00
69667;BME280;66534;52.370;4.832;2024-03-29T01:51:13;98850.94;;;13.45;100.00
69667;BME280;66534;52.370;4.832;2024-03-29T01:51:46;98850.84;;;13.66;100.00
69667;BME280;66534;52.370;4.832;2024-03-29T01:52:16;98853.66;;;13.84;100.00
69667;BME280;66534;52.370;4.832;2024-03-29T01:52:49;98853.22;;;13.89;100.00
69667;BME280;66534;52.370;4.832;2024-03-29T01:53:21;98851.28;;;14.10;100.00
69667;BME280;66534;52.370;4.832;2024-03-29T01:53:52;98852.25;;;14.00;100.00
69667;BME280;66534;52.370;4.832;2024-03-29T01:54:24;98855.44;;;13.93;100.00
69667;BME280;66534;52.370;4.832;2024-03-29T01:54:54;98853.22;;;13.89;100.00
69667;BME280;66534;52.370;4.832;2024-03-29T01:55:25;98862.66;;;13.91;100.00
69667;BME280;66534;52.370;4.832;2024-03-29T01:55:55;98856.84;;;14.07;100.00
69667;BME280;66534;52.370;4.832;2024-03-29T01:56:26;98852.25;;;13.80;100.00
69667;BME280;66534;52.370;4.832;2024-03-29T01:56:57;98851.41;;;13.99;100.00
69667;BME280;66534;52.370;4.832;2024-03-29T01:57:28;98854.88;;;13.90;100.00
69667;BME280;66534;52.370;4.832;2024-03-29T01:57:59;98858.25;;;13.92;100.00
69667;BME280;66534;52.370;4.832;2024-03-29T01:58:30;98860.28;;;13.79;100.00
69667;BME280;66534;52.370;4.832;2024-03-29T01:59:01;98858.88;;;13.65;100.00
69667;BME280;66534;52.370;4.832;2024-03-29T01:59:33;98850.88;;;13.76;100.00
69667;BME280;66534;52.370;4.832;2024-03-29T02:00:05;98847.25;;;13.77;100.00
69667;BME280;66534;52.370;4.832;2024-03-29T02:00:36;98847.41;;;13.76;100.00
69667;BME280;66534;52.370;4.832;2024-03-29T02:01:11;98843.66;;;13.98;100.00
69667;BME280;66534;52.370;4.832;2024-03-29T02:01:42;98849.47;;;13.91;100.00
69667;BME280;66534;52.370;4.832;2024-03-29T02:02:15;98840.03;;;13.99;100.00
69667;BME280;66534;52.370;4.832;2024-03-29T02:02:46;98835.63;;;13.89;100.00
69667;BME280;66534;52.370;4.832;2024-03-29T02:03:16;98846.56;;;13.85;100.00
69667;BME280;66534;52.370;4.832;2024-03-29T02:03:47;98844.75;;;13.85;100.00
69667;BME280;66534;52.370;4.832;2024-03-29T02:04:17;98840.47;;;13.94;100.00
69667;BME280;66534;52.370;4.832;2024-03-29T02:04:49;98848.22;;;13.76;100.00
69667;BME280;66534;52.370;4.832;2024-03-29T02:05:19;98841.41;;;13.83;100.00
69667;BME280;66534;52.370;4.832;2024-03-29T02:05:50;98843.63;;;13.78;100.00
69667;BME280;66534;52.370;4.832;2024-03-29T02:06:21;98838.78;;;13.74;100.00
69667;BME280;66534;52.370;4.832;2024-03-29T02:06:51;98844.66;;;13.97;100.00
69667;BME280;66534;52.370;4.832;2024-03-29T02:07:22;98843.41;;;14.01;100.00
69667;BME280;66534;52.370;4.832;2024-03-29T02:07:53;98842.94;;;13.95;100.00
69667;BME280;66534;52.370;4.832;2024-03-29T02:08:24;98843.78;;;14.15;100.00
69667;BME280;66534;52.370;4.832;2024-03-29T02:08:55;98839.50;;;13.95;100.00
69667;BME280;66534;52.370;4.832;2024-03-29T02:09:25;98841.97;;;13.87;100.00
69667;BME280;66534;52.370;4.832;2024-03-29T02:09:56;98844.19;;;14.20;100.00
69667;BME280;66534;52.370;4.832;2024-03-29T02:10:26;98836.69;;;14.35;100.00
69667;BME280;66534;52.370;4.832;2024-03-29T02:10:57;98835.47;;;14.30;100.00
69667;BME280;66534;52.370;4.832;2024-03-29T02:11:28;98842.81;;;14.26;100.00
69667;BME280;66534;52.370;4.832;2024-03-29T02:11:58;98839.34;;;14.16;100.00
69667;BME280;66534;52.370;4.832;2024-03-29T02:12:29;98844.22;;;14.01;100.00
69667;BME280;66534;52.370;4.832;2024-03-29T02:12:59;98843.50;;;13.99;100.00
69667;BME280;66534;52.370;4.832;2024-03-29T02:13:29;98844.19;;;13.91;100.00
69667;BME280;66534;52.370;4.832;2024-03-29T02:14:02;98850.72;;;13.68;100.00
69667;BME280;66534;52.370;4.832;2024-03-29T02:14:35;98848.34;;;13.75;100.00
69667;BME280;66534;52.370;4.832;2024-03-29T02:15:06;98849.88;;;13.87;100.00
69667;BME280;66534;52.370;4.832;2024-03-29T02:15:38;98850.00;;;13.66;100.00
69667;BME280;66534;52.370;4.832;2024-03-29T02:16:09;98856.66;;;13.60;100.00
69667;BME280;66534;52.370;4.832;2024-03-29T02:16:40;98857.22;;;13.83;100.00
69667;BME280;66534;52.370;4.832;2024-03-29T02:17:12;98851.56;;;13.98;100.00
69667;BME280;66534;52.370;4.832;2024-03-29T02:17:42;98850.44;;;14.00;100.00
69667;BME280;66534;52.370;4.832;2024-03-29T02:18:13;98846.44;;;13.77;100.00
69667;BME280;66534;52.370;4.832;2024-03-29T02:18:43;98855.03;;;13.88;100.00
69667;BME280;66534;52.370;4.832;2024-03-29T02:19:14;98847.41;;;13.85;100.00
69667;BME280;66534;52.370;4.832;2024-03-29T02:19:45;98860.44;;;13.87;100.00
69667;BME280;66534;52.370;4.832;2024-03-29T02:20:15;98853.09;;;13.71;100.00
69667;BME280;66534;52.370;4.832;2024-03-29T02:20:46;98852.22;;;13.70;100.00
69667;BME280;66534;52.370;4.832;2024-03-29T02:21:17;98849.06;;;13.86;100.00
69667;BME280;66534;52.370;4.832;2024-03-29T02:21:48;98844.78;;;14.05;100.00
69667;BME280;66534;52.370;4.832;2024-03-29T02:22:23;98852.94;;;14.21;100.00
69667;BME280;66534;52.370;4.832;2024-03-29T02:22:55;98852.09;;;14.20;100.00
69667;BME280;66534;52.370;4.832;2024-03-29T02:23:30;98854.16;;;14.46;100.00
69667;BME280;66534;52.370;4.832;2024-03-29T02:24:06;98850.88;;;14.15;100.00
69667;BME280;66534;52.370;4.832;2024-03-29T02:24:37;98853.78;;;14.12;100.00
69667;BME280;66534;52.370;4.832;2024-03-29T02:25:07;98848.75;;;14.38;100.00
69667;BME280;66534;52.370;4.832;2024-03-29T02:25:38;98849.78;;;14.17;100.00
69667;BME280;66534;52.370;4.832;2024-03-29T02:26:09;98855.88;;;14.18;100.00
69667;BME280;66534;52.370;4.832;2024-03-29T02:26:41;98854.88;;;14.00;100.00
69667;BME280;66534;52.370;4.832;2024-03-29T02:27:12;98858.50;;;13.99;100.00
69667;BME280;66534;52.370;4.832;2024-03-29T02:27:43;98855.59;;;14.02;100.00
69667;BME280;66534;52.370;4.832;2024-03-29T02:28:14;98860.16;;;14.00;100.00
69667;BME280;66534;52.370;4.832;2024-03-29T02:28:46;98859.88;;;14.12;100.00
69667;BME280;66534;52.370;4.832;2024-03-29T02:29:16;98858.09;;;13.93;100.00
69667;BME280;66534;52.370;4.832;2024-03-29T02:29:47;98850.19;;;14.13;100.00
69667;BME280;66534;52.370;4.832;2024-03-29T02:30:17;98862.81;;;14.19;100.00
69667;BME280;66534;52.370;4.832;2024-03-29T02:30:49;98852.38;;;14.08;100.00
69667;BME280;66534;52.370;4.832;2024-03-29T02:31:19;98859.34;;;14.18;100.00
69667;BME280;66534;52.370;4.832;2024-03-29T02:31:51;98854.47;;;13.94;100.00
69667;BME280;66534;52.370;4.832;2024-03-29T02:32:21;98858.78;;;13.86;100.00
69667;BME280;66534;52.370;4.832;2024-03-29T02:32:52;98856.28;;;13.84;100.00
69667;BME280;66534;52.370;4.832;2024-03-29T02:33:23;98855.31;;;13.95;100.00
69667;BME280;66534;52.370;4.832;2024-03-29T02:33:54;98853.25;;;14.18;100.00
69667;BME280;66534;52.370;4.832;2024-03-29T02:34:24;98861.28;;;14.07;100.00
69667;BME280;66534;52.370;4.832;2024-03-29T02:34:55;98851.56;;;14.07;100.00
69667;BME280;66534;52.370;4.832;2024-03-29T02:35:26;98851.56;;;14.07;100.00
69667;BME280;66534;52.370;4.832;2024-03-29T02:35:57;98857.13;;;14.14;100.00
69667;BME280;66534;52.370;4.832;2024-03-29T02:36:27;98851.69;;;14.35;100.00
69667;BME280;66534;52.370;4.832;2024-03-29T02:36:58;98859.47;;;13.88;100.00
69667;BME280;66534;52.370;4.832;2024-03-29T02:37:29;98857.38;;;13.91;100.00
69667;BME280;66534;52.370;4.832;2024-03-29T02:37:59;98859.28;;;13.70;100.00
69667;BME280;66534;52.370;4.832;2024-03-29T02:38:30;98856.41;;;13.73;100.00
69667;BME280;66534;52.370;4.832;2024-03-29T02:39:00;98855.72;;;13.90;100.00
69667;BME280;66534;52.370;4.832;2024-03-29T02:39:30;98860.31;;;13.88;100.00
69667;BME280;66534;52.370;4.832;2024-03-29T02:40:01;98865.28;;;13.91;100.00
69667;BME280;66534;52.370;4.832;2024-03-29T02:40:32;98869.03;;;13.89;100.00
69667;BME280;66534;52.370;4.832;2024-03-29T02:41:03;98861.69;;;13.92;100.00
69667;BME280;66534;52.370;4.832;2024-03-29T02:41:34;98861.56;;;14.23;100.00
69667;BME280;66534;52.370;4.832;2024-03-29T02:42:05;98866.41;;;14.08;100.00